Currie, Australia
Current Conditions -  °F | °C
As of 7:00 AM on Thursday 27 Nov 2014 (Local Time) from YMAV Reporting Station
Overcast Overcast  
Wind Chill: 55°   Ceiling: 3400
Heat Index: 55°   Visibility: 6mi
Dew Point: 45°   Wind: 12mph
Humidity: 67%   Direction: 160°SSE
Pressure: 30.27"   Gusts: NA
Location:  39.93°S, 143.85°E
Report Text: YMAV 262000Z AUTO 16010KT 9999 // OVC034 13/07 Q1025
Loading
Personal Weather Stations






























Interactive Weather Map New forecast layout! Learn more

10-Day Weather Forecast

Advertisements
Track Severe Weather on mobile